Time;durP1;ratioP1;P1;durP2;ratioP2;P2;SDS_P1;SDS_P2;PMS_P1;PMS_P2;Temp;Humidity;BMP_temperature;BMP_pressure;BME280_temperature;BME280_humidity;BME280_pressure;Samples;Min_cycle;Max_cycle;Signal;HPM_P1;HPM_P2
2022/01/11 00:00:57;;;;;;;;;;;;;;;;;;4222756;28;950;-56
2022/01/11 00:03:17;;;;;;;;;;;;;;;;;;4222688;28;1072;-56
2022/01/11 00:05:43;;;;;;;;;;;;;;;;;;4222331;28;1081;-56
2022/01/11 00:08:06;;;;;;;;;;;;;;;;;;4222723;28;988;-57
2022/01/11 00:10:27;;;;;;;;;;;;;;;;;;4222736;28;915;-57
2022/01/11 00:12:47;;;;;;;;;;;;;;;;;;4222551;28;1020;-55
2022/01/11 00:15:08;;;;;;;;;;;;;;;;;;4222343;28;1890;-56
2022/01/11 00:17:28;;;;;;;;;;;;;;;;;;4222345;28;1274;-56
2022/01/11 00:19:49;;;;;;;;;;;;;;;;;;4207038;28;1007;-56
2022/01/11 00:22:17;;;;;;;;;;;;;;;;;;4222528;28;1266;-56
2022/01/11 00:24:36;;;;;;;;;;;;;;;;;;4222222;28;1189;-56
2022/01/11 00:26:57;;;;;;;;;;;;;;;;;;4206853;28;1211;-56
2022/01/11 00:29:18;;;;;;;;;;;;;;;;;;4221928;28;1086;-56
2022/01/11 00:31:38;;;;;;;;;;;;;;;;;;4222187;28;916;-56
2022/01/11 00:34:01;;;;;;;;;;;;;;;;;;4235726;28;967;-56
2022/01/11 00:36:21;;;;;;;;;;;;;;;;;;4207131;28;829;-57
2022/01/11 00:38:41;;;;;;;;;;;;;;;;;;4218390;28;1331;-56
2022/01/11 00:41:02;;;;;;;;;;;;;;;;;;4222385;28;922;-56
2022/01/11 00:43:22;;;;;;;;;;;;;;;;;;4235241;28;1186;-57
2022/01/11 00:45:43;;;;;;;;;;;;;;;;;;4206659;28;1209;-56
2022/01/11 00:48:03;;;;;;;;;;;;;;;;;;4234976;28;1002;-56
2022/01/11 00:50:24;;;;;;;;;;;;;;;;;;4235507;28;1005;-56
2022/01/11 00:52:45;;;;;;;;;;;;;;;;;;4221915;28;1010;-56
2022/01/11 00:55:06;;;;;;;;;;;;;;;;;;4222025;28;1980;-56
2022/01/11 00:57:26;;;;;;;;;;;;;;;;;;4221499;28;1051;-56
2022/01/11 00:59:47;;;;;;;;;;;;;;;;;;4221834;28;1093;-56
2022/01/11 01:02:07;;;;;;;;;;;;;;;;;;4221263;28;1109;-56
2022/01/11 01:04:27;;;;;;;;;;;;;;;;;;4221921;28;1245;-56
2022/01/11 01:06:48;;;;;;;;;;;;;;;;;;4206454;28;1132;-56
2022/01/11 01:09:09;;;;;;;;;;;;;;;;;;4206303;28;996;-56
2022/01/11 01:11:33;;;;;;;;;;;;;;;;;;4206572;28;853;-56
2022/01/11 01:13:54;;;;;;;;;;;;;;;;;;4221918;28;838;-55
2022/01/11 01:16:14;;;;;;;;;;;;;;;;;;4206115;28;2020;-56
2022/01/11 01:18:49;;;;;;;;;;;;;;;;;;4221421;28;1391;-56
2022/01/11 01:21:09;;;;;;;;;;;;;;;;;;4234689;28;1113;-56
2022/01/11 01:23:30;;;;;;;;;;;;;;;;;;4189148;28;1861;-56
2022/01/11 01:25:50;;;;;;;;;;;;;;;;;;4221380;28;943;-56
2022/01/11 01:28:10;;;;;;;;;;;;;;;;;;4206301;28;1091;-56
2022/01/11 01:30:31;;;;;;;;;;;;;;;;;;4221512;28;986;-56
2022/01/11 01:32:51;;;;;;;;;;;;;;;;;;4221623;28;1311;-56
2022/01/11 01:35:12;;;;;;;;;;;;;;;;;;4221624;28;1906;-56
2022/01/11 01:37:33;;;;;;;;;;;;;;;;;;4221761;28;1142;-56
2022/01/11 01:39:53;;;;;;;;;;;;;;;;;;4221489;28;979;-56
2022/01/11 01:42:13;;;;;;;;;;;;;;;;;;4221656;28;1019;-56
2022/01/11 01:44:34;;;;;;;;;;;;;;;;;;4221202;28;1023;-56
2022/01/11 01:46:55;;;;;;;;;;;;;;;;;;4234404;28;1332;-56
2022/01/11 01:49:18;;;;;;;;;;;;;;;;;;4221040;28;1090;-56
2022/01/11 01:51:39;;;;;;;;;;;;;;;;;;4221705;28;830;-56
2022/01/11 01:53:59;;;;;;;;;;;;;;;;;;4221868;28;1032;-56
2022/01/11 01:56:20;;;;;;;;;;;;;;;;;;4233842;28;1956;-57
2022/01/11 01:58:42;;;;;;;;;;;;;;;;;;4205372;28;1080;-56
2022/01/11 02:04:06;;;;;;;;;;;;;;;;;;4220251;28;962;-56
2022/01/11 02:06:27;;;;;;;;;;;;;;;;;;4220466;28;1092;-56
2022/01/11 02:08:47;;;;;;;;;;;;;;;;;;4205618;28;1172;-56
2022/01/11 02:11:08;;;;;;;;;;;;;;;;;;4205888;28;893;-56
2022/01/11 02:13:28;;;;;;;;;;;;;;;;;;4204797;28;1094;-56
2022/01/11 02:15:50;;;;;;;;;;;;;;;;;;4207351;28;1976;-56
2022/01/11 02:18:10;;;;;;;;;;;;;;;;;;4213266;28;1099;-57
2022/01/11 02:20:31;;;;;;;;;;;;;;;;;;4222380;28;1332;-56
2022/01/11 02:22:51;;;;;;;;;;;;;;;;;;4221833;28;1203;-56
2022/01/11 02:25:12;;;;;;;;;;;;;;;;;;4221698;28;1730;-56
2022/01/11 02:27:33;;;;;;;;;;;;;;;;;;4216984;28;1142;-56
2022/01/11 02:29:53;;;;;;;;;;;;;;;;;;4222430;28;1039;-56
2022/01/11 02:32:13;;;;;;;;;;;;;;;;;;4251401;27;1154;-56
2022/01/11 02:34:34;;;;;;;;;;;;;;;;;;4222508;28;1000;-56
2022/01/11 02:37:33;;;;;;;;;;;;;;;;;;4171592;28;1346;-56
2022/01/11 02:40:01;;;;;;;;;;;;;;;;;;4157742;28;933;-56
2022/01/11 02:42:27;;;;;;;;;;;;;;;;;;4197386;28;1968;-56
2022/01/11 02:44:47;;;;;;;;;;;;;;;;;;4223177;28;1200;-56
2022/01/11 02:47:12;;;;;;;;;;;;;;;;;;4246925;27;1104;-57
2022/01/11 02:49:33;;;;;;;;;;;;;;;;;;4222406;28;946;-56
2022/01/11 02:51:59;;;;;;;;;;;;;;;;;;4251203;27;965;-56
2022/01/11 02:54:20;;;;;;;;;;;;;;;;;;4223287;28;1017;-55
2022/01/11 02:56:43;;;;;;;;;;;;;;;;;;4220890;28;1991;-56
2022/01/11 02:59:04;;;;;;;;;;;;;;;;;;4206695;28;969;-56
2022/01/11 03:01:24;;;;;;;;;;;;;;;;;;4234436;28;1157;-56
2022/01/11 03:03:45;;;;;;;;;;;;;;;;;;4234231;28;1016;-56
2022/01/11 03:06:06;;;;;;;;;;;;;;;;;;4233973;28;1251;-56
2022/01/11 03:08:30;;;;;;;;;;;;;;;;;;4245862;27;1009;-56
2022/01/11 03:10:54;;;;;;;;;;;;;;;;;;4221035;28;966;-56
2022/01/11 03:13:16;;;;;;;;;;;;;;;;;;4223591;28;816;-56
2022/01/11 03:15:37;;;;;;;;;;;;;;;;;;4207424;28;2009;-55
2022/01/11 03:18:02;;;;;;;;;;;;;;;;;;4222167;28;1080;-56
2022/01/11 03:20:24;;;;;;;;;;;;;;;;;;4250986;27;952;-56
2022/01/11 03:22:44;;;;;;;;;;;;;;;;;;4221747;28;1029;-56
2022/01/11 03:25:06;;;;;;;;;;;;;;;;;;4221594;28;1036;-56
2022/01/11 03:27:27;;;;;;;;;;;;;;;;;;4221883;28;1103;-56
2022/01/11 03:29:47;;;;;;;;;;;;;;;;;;4222795;28;1004;-56
2022/01/11 03:32:07;;;;;;;;;;;;;;;;;;4222991;28;1087;-55
2022/01/11 03:34:28;;;;;;;;;;;;;;;;;;4223133;28;1138;-56
2022/01/11 03:36:48;;;;;;;;;;;;;;;;;;4221788;28;1902;-56
2022/01/11 03:39:09;;;;;;;;;;;;;;;;;;4223178;28;876;-57
2022/01/11 03:41:29;;;;;;;;;;;;;;;;;;4220804;28;2077;-56
2022/01/11 03:43:50;;;;;;;;;;;;;;;;;;4206836;28;1018;-57
2022/01/11 03:46:16;;;;;;;;;;;;;;;;;;4234325;28;1046;-57
2022/01/11 03:48:37;;;;;;;;;;;;;;;;;;4206080;28;942;-56
2022/01/11 03:50:58;;;;;;;;;;;;;;;;;;4233819;28;975;-56
2022/01/11 03:53:38;;;;;;;;;;;;;;;;;;4232647;28;985;-57
2022/01/11 03:56:11;;;;;;;;;;;;;;;;;;4205691;28;1910;-56
2022/01/11 03:58:37;;;;;;;;;;;;;;;;;;4233711;28;881;-57
2022/01/11 04:00:58;;;;;;;;;;;;;;;;;;4233454;28;993;-56
2022/01/11 04:03:19;;;;;;;;;;;;;;;;;;4233689;28;892;-56
2022/01/11 04:05:43;;;;;;;;;;;;;;;;;;4232738;28;1037;-56
2022/01/11 04:08:03;;;;;;;;;;;;;;;;;;4233577;28;1004;-55
2022/01/11 04:10:23;;;;;;;;;;;;;;;;;;4232345;27;1955;-56
2022/01/11 04:12:47;;;;;;;;;;;;;;;;;;4234045;27;2181;-56
2022/01/11 04:15:08;;;;;;;;;;;;;;;;;;4208609;28;1685;-56
2022/01/11 04:17:29;;;;;;;;;;;;;;;;;;4232564;27;2329;-56
2022/01/11 04:19:50;;;;;;;;;;;;;;;;;;4190167;28;1076;-56
2022/01/11 04:22:10;;;;;;;;;;;;;;;;;;4189581;28;2002;-56
2022/01/11 04:24:32;;;;;;;;;;;;;;;;;;4193717;28;995;-56
2022/01/11 04:26:52;;;;;;;;;;;;;;;;;;4198118;28;1853;-56
2022/01/11 04:29:12;;;;;;;;;;;;;;;;;;4189025;28;2163;-56
2022/01/11 04:31:34;;;;;;;;;;;;;;;;;;4188779;28;2222;-56
2022/01/11 04:33:56;;;;;;;;;;;;;;;;;;4191059;28;1921;-56
2022/01/11 04:36:16;;;;;;;;;;;;;;;;;;4189432;28;2268;-56
2022/01/11 04:38:38;;;;;;;;;;;;;;;;;;4186894;28;2270;-56
2022/01/11 04:40:59;;;;;;;;;;;;;;;;;;4188227;28;2251;-56
2022/01/11 04:43:21;;;;;;;;;;;;;;;;;;4189125;28;1468;-56
2022/01/11 04:45:42;;;;;;;;;;;;;;;;;;4185003;28;948;-56
2022/01/11 04:48:03;;;;;;;;;;;;;;;;;;4220558;28;1144;-56
2022/01/11 04:50:24;;;;;;;;;;;;;;;;;;4193587;28;2268;-56
2022/01/11 04:52:45;;;;;;;;;;;;;;;;;;4196433;28;1224;-56
2022/01/11 04:55:08;;;;;;;;;;;;;;;;;;4205228;28;1056;-56
2022/01/11 04:57:29;;;;;;;;;;;;;;;;;;4189926;28;2000;-56
2022/01/11 04:59:49;;;;;;;;;;;;;;;;;;4205378;28;925;-56
2022/01/11 05:02:10;;;;;;;;;;;;;;;;;;4189849;28;956;-56
2022/01/11 05:04:31;;;;;;;;;;;;;;;;;;4172395;28;1058;-56
2022/01/11 05:06:52;;;;;;;;;;;;;;;;;;4189975;28;950;-56
2022/01/11 05:09:12;;;;;;;;;;;;;;;;;;4205063;28;1001;-56
2022/01/11 05:11:33;;;;;;;;;;;;;;;;;;4189821;28;853;-56
2022/01/11 05:13:54;;;;;;;;;;;;;;;;;;4189977;28;1078;-55
2022/01/11 05:16:24;;;;;;;;;;;;;;;;;;4189188;28;1909;-56
2022/01/11 05:18:45;;;;;;;;;;;;;;;;;;4198759;28;1104;-56
2022/01/11 05:21:06;;;;;;;;;;;;;;;;;;4232326;28;1135;-56
2022/01/11 05:23:26;;;;;;;;;;;;;;;;;;4205005;28;1040;-57
2022/01/11 05:25:46;;;;;;;;;;;;;;;;;;4232526;28;1127;-57
2022/01/11 05:28:07;;;;;;;;;;;;;;;;;;4205049;28;1194;-56
2022/01/11 05:30:27;;;;;;;;;;;;;;;;;;4232291;28;993;-57
2022/01/11 05:32:48;;;;;;;;;;;;;;;;;;4232116;28;1151;-57
2022/01/11 05:35:08;;;;;;;;;;;;;;;;;;4204920;28;1106;-57
2022/01/11 05:37:29;;;;;;;;;;;;;;;;;;4204841;28;1910;-57
2022/01/11 05:39:53;;;;;;;;;;;;;;;;;;4204951;28;1028;-56
2022/01/11 05:42:13;;;;;;;;;;;;;;;;;;4232260;28;1008;-57
2022/01/11 05:44:34;;;;;;;;;;;;;;;;;;4231995;28;974;-56
2022/01/11 05:46:55;;;;;;;;;;;;;;;;;;4231971;28;1291;-56
2022/01/11 05:49:15;;;;;;;;;;;;;;;;;;4233576;28;984;-57
2022/01/11 05:51:36;;;;;;;;;;;;;;;;;;4235164;28;1416;-57
2022/01/11 05:53:57;;;;;;;;;;;;;;;;;;4207665;28;1033;-57
2022/01/11 05:56:17;;;;;;;;;;;;;;;;;;4235080;28;1040;-57
2022/01/11 05:58:38;;;;;;;;;;;;;;;;;;4234930;28;949;-57
2022/01/11 06:00:59;;;;;;;;;;;;;;;;;;4234970;28;1174;-56
2022/01/11 06:03:20;;;;;;;;;;;;;;;;;;4234800;28;1022;-57
2022/01/11 06:05:43;;;;;;;;;;;;;;;;;;4234860;28;1044;-57
2022/01/11 06:08:07;;;;;;;;;;;;;;;;;;4234801;28;950;-57
2022/01/11 06:10:27;;;;;;;;;;;;;;;;;;4234838;28;991;-57
2022/01/11 06:12:48;;;;;;;;;;;;;;;;;;4234716;28;1102;-56
2022/01/11 06:15:08;;;;;;;;;;;;;;;;;;4235366;28;1064;-58
2022/01/11 06:17:29;;;;;;;;;;;;;;;;;;4235044;28;1906;-58
2022/01/11 06:19:49;;;;;;;;;;;;;;;;;;4192435;28;1161;-57
2022/01/11 06:22:18;;;;;;;;;;;;;;;;;;4191891;28;1054;-58
2022/01/11 06:24:39;;;;;;;;;;;;;;;;;;4192471;28;1026;-57
2022/01/11 06:27:01;;;;;;;;;;;;;;;;;;4200135;28;1206;-58
2022/01/11 06:29:21;;;;;;;;;;;;;;;;;;4210536;28;1049;-58
2022/01/11 06:31:42;;;;;;;;;;;;;;;;;;4208561;28;1191;-58
2022/01/11 06:34:02;;;;;;;;;;;;;;;;;;4207111;28;1666;-58
2022/01/11 06:36:23;;;;;;;;;;;;;;;;;;4196523;28;1837;-57
2022/01/11 06:38:43;;;;;;;;;;;;;;;;;;4193884;28;1456;-58
2022/01/11 06:41:06;;;;;;;;;;;;;;;;;;4207445;28;2948;-57
2022/01/11 06:43:26;;;;;;;;;;;;;;;;;;4208799;28;1237;-58
2022/01/11 06:45:47;;;;;;;;;;;;;;;;;;4224414;28;991;-58
2022/01/11 06:48:11;;;;;;;;;;;;;;;;;;4208587;28;929;-57
2022/01/11 06:50:31;;;;;;;;;;;;;;;;;;4208483;28;994;-57
2022/01/11 06:52:52;;;;;;;;;;;;;;;;;;4208046;28;1194;-58
2022/01/11 06:55:12;;;;;;;;;;;;;;;;;;4208570;28;967;-58
2022/01/11 06:57:33;;;;;;;;;;;;;;;;;;4208313;28;1982;-58
2022/01/11 06:59:53;;;;;;;;;;;;;;;;;;4223091;28;1011;-58
2022/01/11 07:02:17;;;;;;;;;;;;;;;;;;4208436;28;969;-58
2022/01/11 07:04:45;;;;;;;;;;;;;;;;;;4207947;28;974;-58
2022/01/11 07:07:07;;;;;;;;;;;;;;;;;;4200630;28;2503;-57
2022/01/11 07:09:28;;;;;;;;;;;;;;;;;;4207955;28;1174;-58
2022/01/11 07:11:49;;;;;;;;;;;;;;;;;;4208460;28;1068;-57
2022/01/11 07:14:11;;;;;;;;;;;;;;;;;;4207908;28;958;-58
2022/01/11 07:16:33;;;;;;;;;;;;;;;;;;4205664;28;1020;-58
2022/01/11 07:18:55;;;;;;;;;;;;;;;;;;4206721;28;1301;-57
2022/01/11 07:21:16;;;;;;;;;;;;;;;;;;4222156;28;1036;-58
2022/01/11 07:23:36;;;;;;;;;;;;;;;;;;4222582;28;1047;-58
2022/01/11 07:25:57;;;;;;;;;;;;;;;;;;4223386;28;883;-57
2022/01/11 07:28:19;;;;;;;;;;;;;;;;;;4222010;28;1387;-58
2022/01/11 07:30:41;;;;;;;;;;;;;;;;;;4244395;27;1185;-57
2022/01/11 07:33:02;;;;;;;;;;;;;;;;;;4205105;28;1151;-57
2022/01/11 07:35:24;;;;;;;;;;;;;;;;;;4205578;28;1176;-58
2022/01/11 07:37:46;;;;;;;;;;;;;;;;;;4216362;28;1996;-57
2022/01/11 07:40:08;;;;;;;;;;;;;;;;;;4222143;28;841;-57
2022/01/11 07:42:28;;;;;;;;;;;;;;;;;;4213865;28;1134;-58
2022/01/11 07:45:04;;;;;;;;;;;;;;;;;;4218910;28;1105;-58
2022/01/11 07:47:25;;;;;;;;;;;;;;;;;;4219798;28;1229;-57
2022/01/11 07:49:47;;;;;;;;;;;;;;;;;;4219742;28;1189;-57
2022/01/11 07:52:07;;;;;;;;;;;;;;;;;;4215836;28;933;-57
2022/01/11 07:54:27;;;;;;;;;;;;;;;;;;4221194;28;1181;-57
2022/01/11 07:56:48;;;;;;;;;;;;;;;;;;4218418;28;1507;-57
2022/01/11 07:59:11;;;;;;;;;;;;;;;;;;4212738;28;1905;-57
2022/01/11 08:01:36;;;;;;;;;;;;;;;;;;4204717;28;1939;-57
2022/01/11 08:03:59;;;;;;;;;;;;;;;;;;4211442;28;975;-58
2022/01/11 08:06:22;;;;;;;;;;;;;;;;;;4204879;28;1110;-57
2022/01/11 08:08:50;;;;;;;;;;;;;;;;;;4204487;28;994;-58
2022/01/11 08:11:11;;;;;;;;;;;;;;;;;;4204587;28;870;-58
2022/01/11 08:13:32;;;;;;;;;;;;;;;;;;4220588;28;1104;-58
2022/01/11 08:15:52;;;;;;;;;;;;;;;;;;4221319;28;941;-57
2022/01/11 08:18:13;;;;;;;;;;;;;;;;;;4221282;28;1909;-57
2022/01/11 08:20:36;;;;;;;;;;;;;;;;;;4250592;27;1137;-58
2022/01/11 08:22:58;;;;;;;;;;;;;;;;;;4220094;28;2215;-58
2022/01/11 08:25:19;;;;;;;;;;;;;;;;;;4218577;28;2182;-57
2022/01/11 08:27:40;;;;;;;;;;;;;;;;;;4225825;28;1993;-58
2022/01/11 08:30:00;;;;;;;;;;;;;;;;;;4225263;28;2099;-58
2022/01/11 08:32:21;;;;;;;;;;;;;;;;;;4229841;28;1428;-57
2022/01/11 08:34:42;;;;;;;;;;;;;;;;;;4234358;28;1960;-58
2022/01/11 08:37:04;;;;;;;;;;;;;;;;;;4226263;28;2993;-58
2022/01/11 08:39:26;;;;;;;;;;;;;;;;;;4229330;28;1874;-57
2022/01/11 08:41:47;;;;;;;;;;;;;;;;;;4226370;28;1595;-58
2022/01/11 08:44:09;;;;;;;;;;;;;;;;;;4226544;28;1661;-57
2022/01/11 08:46:30;;;;;;;;;;;;;;;;;;4221124;28;2248;-58
2022/01/11 08:48:56;;;;;;;;;;;;;;;;;;4221763;28;1839;-57
2022/01/11 08:51:18;;;;;;;;;;;;;;;;;;4231139;28;1927;-57
2022/01/11 08:53:39;;;;;;;;;;;;;;;;;;4231991;28;1559;-57
2022/01/11 08:56:05;;;;;;;;;;;;;;;;;;4228174;28;1954;-57
2022/01/11 08:58:28;;;;;;;;;;;;;;;;;;4223136;28;1902;-57
2022/01/11 09:00:49;;;;;;;;;;;;;;;;;;4227464;28;2521;-57
2022/01/11 09:03:10;;;;;;;;;;;;;;;;;;4223868;28;1613;-57
2022/01/11 09:05:36;;;;;;;;;;;;;;;;;;4232091;28;2166;-60
2022/01/11 09:07:58;;;;;;;;;;;;;;;;;;4227265;28;1487;-59
2022/01/11 09:10:20;;;;;;;;;;;;;;;;;;4227957;28;2004;-59
2022/01/11 09:12:40;;;;;;;;;;;;;;;;;;4219395;28;1658;-59
2022/01/11 09:15:03;;;;;;;;;;;;;;;;;;4219527;28;1036;-59
2022/01/11 09:17:24;;;;;;;;;;;;;;;;;;4220441;28;1281;-59
2022/01/11 09:19:45;;;;;;;;;;;;;;;;;;4206085;28;950;-59
2022/01/11 09:22:08;;;;;;;;;;;;;;;;;;4205615;28;1107;-61
2022/01/11 09:24:30;;;;;;;;;;;;;;;;;;4205428;28;949;-58
2022/01/11 09:26:55;;;;;;;;;;;;;;;;;;4206076;28;1165;-58
2022/01/11 09:29:17;;;;;;;;;;;;;;;;;;4220572;28;1112;-58
2022/01/11 09:31:40;;;;;;;;;;;;;;;;;;4206087;28;1323;-58
2022/01/11 09:34:00;;;;;;;;;;;;;;;;;;4205880;28;866;-58
2022/01/11 09:36:21;;;;;;;;;;;;;;;;;;4205968;28;1134;-59
2022/01/11 09:38:41;;;;;;;;;;;;;;;;;;4206286;28;1979;-58
2022/01/11 09:41:02;;;;;;;;;;;;;;;;;;4206028;28;1165;-58
2022/01/11 09:43:26;;;;;;;;;;;;;;;;;;4206151;28;1027;-58
2022/01/11 09:45:49;;;;;;;;;;;;;;;;;;4206050;28;898;-59
2022/01/11 09:48:10;;;;;;;;;;;;;;;;;;4206268;28;1047;-59
2022/01/11 09:50:35;;;;;;;;;;;;;;;;;;4206245;28;1036;-58
2022/01/11 09:52:58;;;;;;;;;;;;;;;;;;4206029;28;1005;-58
2022/01/11 09:55:21;;;;;;;;;;;;;;;;;;4206231;28;1167;-58
2022/01/11 09:57:42;;;;;;;;;;;;;;;;;;4206245;28;908;-59
2022/01/11 10:00:29;;;;;;;;;;;;;;;;;;4205195;28;1121;-58
2022/01/11 10:03:01;;;;;;;;;;;;;;;;;;4206156;28;1209;-59
2022/01/11 10:05:36;;;;;;;;;;;;;;;;;;4206132;28;841;-58
2022/01/11 10:08:03;;;;;;;;;;;;;;;;;;4220752;28;944;-58
2022/01/11 10:10:23;;;;;;;;;;;;;;;;;;4220828;28;1051;-58
2022/01/11 10:12:46;;;;;;;;;;;;;;;;;;4206079;28;1109;-57
2022/01/11 10:15:07;;;;;;;;;;;;;;;;;;4205825;28;1133;-59
2022/01/11 10:17:27;;;;;;;;;;;;;;;;;;4205580;28;1099;-58
2022/01/11 10:19:57;;;;;;;;;;;;;;;;;;4205819;28;1902;-58
2022/01/11 10:22:18;;;;;;;;;;;;;;;;;;4205566;28;1060;-58
2022/01/11 10:24:41;;;;;;;;;;;;;;;;;;4205838;28;926;-60
2022/01/11 10:27:07;;;;;;;;;;;;;;;;;;4204192;28;3297;-58
2022/01/11 10:29:28;;;;;;;;;;;;;;;;;;4212980;28;1836;-59
2022/01/11 10:31:51;;;;;;;;;;;;;;;;;;4211120;28;1489;-58
2022/01/11 10:34:12;;;;;;;;;;;;;;;;;;4208093;28;1944;-58
2022/01/11 10:36:35;;;;;;;;;;;;;;;;;;4208566;28;1620;-58
2022/01/11 10:38:59;;;;;;;;;;;;;;;;;;4211735;28;2638;-58
2022/01/11 10:41:20;;;;;;;;;;;;;;;;;;4230737;28;2509;-58
2022/01/11 10:43:41;;;;;;;;;;;;;;;;;;4214796;28;1680;-58
2022/01/11 10:46:02;;;;;;;;;;;;;;;;;;4216367;28;1730;-58
2022/01/11 10:48:23;;;;;;;;;;;;;;;;;;4214671;28;1906;-58
2022/01/11 10:50:46;;;;;;;;;;;;;;;;;;4212547;28;1947;-58
2022/01/11 10:53:08;;;;;;;;;;;;;;;;;;4213359;28;1795;-57
2022/01/11 10:55:28;;;;;;;;;;;;;;;;;;4216076;28;1653;-57
2022/01/11 10:57:49;;;;;;;;;;;;;;;;;;4218613;28;2234;-58
2022/01/11 11:00:10;;;;;;;;;;;;;;;;;;4218815;28;2181;-58
2022/01/11 11:02:30;;;;;;;;;;;;;;;;;;4212613;28;1882;-58
2022/01/11 11:04:52;;;;;;;;;;;;;;;;;;4216861;28;1951;-58
2022/01/11 11:07:13;;;;;;;;;;;;;;;;;;4216853;28;1918;-58
2022/01/11 11:09:35;;;;;;;;;;;;;;;;;;4213231;28;1872;-58
2022/01/11 11:11:56;;;;;;;;;;;;;;;;;;4200864;28;1573;-58
2022/01/11 11:14:31;;;;;;;;;;;;;;;;;;4194087;28;3308;-58
2022/01/11 11:17:00;;;;;;;;;;;;;;;;;;4191186;28;1076;-58
2022/01/11 11:19:21;;;;;;;;;;;;;;;;;;4179484;28;2297;-58
2022/01/11 11:21:49;;;;;;;;;;;;;;;;;;4219712;28;1017;-58
2022/01/11 11:24:10;;;;;;;;;;;;;;;;;;4206565;28;843;-58
2022/01/11 11:26:30;;;;;;;;;;;;;;;;;;4206231;28;998;-58
2022/01/11 11:28:51;;;;;;;;;;;;;;;;;;4206552;28;918;-58
2022/01/11 11:31:11;;;;;;;;;;;;;;;;;;4206038;28;1001;-58
2022/01/11 11:33:31;;;;;;;;;;;;;;;;;;4206205;28;1265;-58
2022/01/11 11:35:52;;;;;;;;;;;;;;;;;;4205938;28;954;-58
2022/01/11 11:38:12;;;;;;;;;;;;;;;;;;4205940;28;1329;-58
2022/01/11 11:40:32;;;;;;;;;;;;;;;;;;4206334;28;1973;-58
2022/01/11 11:42:53;;;;;;;;;;;;;;;;;;4206176;28;1300;-58
2022/01/11 11:45:13;;;;;;;;;;;;;;;;;;4205842;28;1006;-58
2022/01/11 11:47:35;;;;;;;;;;;;;;;;;;4206155;28;932;-58
2022/01/11 11:49:55;;;;;;;;;;;;;;;;;;4205941;28;1018;-58
2022/01/11 11:52:16;;;;;;;;;;;;;;;;;;4205839;28;1128;-58
2022/01/11 11:54:36;;;;;;;;;;;;;;;;;;4206097;28;919;-58
2022/01/11 11:56:56;;;;;;;;;;;;;;;;;;4205711;28;1022;-58
2022/01/11 11:59:18;;;;;;;;;;;;;;;;;;4206061;28;1988;-58
2022/01/11 12:01:41;;;;;;;;;;;;;;;;;;4205678;28;1009;-59
2022/01/11 12:04:02;;;;;;;;;;;;;;;;;;4205711;28;1048;-58
2022/01/11 12:06:22;;;;;;;;;;;;;;;;;;4206089;28;944;-58
2022/01/11 12:08:43;;;;;;;;;;;;;;;;;;4205766;28;1179;-58
2022/01/11 12:11:04;;;;;;;;;;;;;;;;;;4205531;28;1200;-58
2022/01/11 12:13:25;;;;;;;;;;;;;;;;;;4205594;28;1014;-58
2022/01/11 12:15:45;;;;;;;;;;;;;;;;;;4205656;28;935;-58
2022/01/11 12:18:06;;;;;;;;;;;;;;;;;;4211822;28;1070;-58
2022/01/11 12:20:27;;;;;;;;;;;;;;;;;;4222207;28;1906;-59
2022/01/11 12:22:47;;;;;;;;;;;;;;;;;;4222649;28;1007;-58
2022/01/11 12:25:07;;;;;;;;;;;;;;;;;;4222567;28;977;-58
2022/01/11 12:27:28;;;;;;;;;;;;;;;;;;4222182;28;1017;-58
2022/01/11 12:29:48;;;;;;;;;;;;;;;;;;4222653;28;830;-58
2022/01/11 12:32:09;;;;;;;;;;;;;;;;;;4222446;28;1104;-58
2022/01/11 12:34:29;;;;;;;;;;;;;;;;;;4221938;28;981;-58
2022/01/11 12:36:50;;;;;;;;;;;;;;;;;;4222010;28;1199;-58
2022/01/11 12:39:10;;;;;;;;;;;;;;;;;;4221886;28;1905;-58
2022/01/11 12:41:30;;;;;;;;;;;;;;;;;;4222429;28;1083;-58
2022/01/11 12:43:56;;;;;;;;;;;;;;;;;;4222785;28;982;-59
2022/01/11 12:46:17;;;;;;;;;;;;;;;;;;4221895;28;937;-58
2022/01/11 12:48:38;;;;;;;;;;;;;;;;;;4222261;28;960;-58
2022/01/11 12:51:01;;;;;;;;;;;;;;;;;;4203982;28;954;-58
2022/01/11 12:53:22;;;;;;;;;;;;;;;;;;4222153;28;853;-58
2022/01/11 12:55:42;;;;;;;;;;;;;;;;;;4221993;28;1101;-58
2022/01/11 12:58:02;;;;;;;;;;;;;;;;;;4221391;28;1200;-58
2022/01/11 13:00:23;;;;;;;;;;;;;;;;;;4222059;28;1910;-58
2022/01/11 13:02:43;;;;;;;;;;;;;;;;;;4222082;28;939;-58
2022/01/11 13:05:03;;;;;;;;;;;;;;;;;;4221779;28;935;-58
2022/01/11 13:07:24;;;;;;;;;;;;;;;;;;4221588;28;1163;-58
2022/01/11 13:09:45;;;;;;;;;;;;;;;;;;4221780;28;992;-58
2022/01/11 13:12:05;;;;;;;;;;;;;;;;;;4221547;28;1104;-58
2022/01/11 13:14:37;;;;;;;;;;;;;;;;;;4221597;28;1250;-58
2022/01/11 13:16:57;;;;;;;;;;;;;;;;;;4221460;28;954;-58
2022/01/11 13:19:17;;;;;;;;;;;;;;;;;;4221357;28;2276;-58
2022/01/11 13:21:38;;;;;;;;;;;;;;;;;;4221793;28;1023;-59
2022/01/11 13:24:06;;;;;;;;;;;;;;;;;;4206191;28;1018;-58
2022/01/11 13:26:28;;;;;;;;;;;;;;;;;;4221691;28;1027;-58
2022/01/11 13:28:49;;;;;;;;;;;;;;;;;;4221413;28;1175;-58
2022/01/11 13:31:10;;;;;;;;;;;;;;;;;;4221376;28;1220;-59
2022/01/11 13:33:30;;;;;;;;;;;;;;;;;;4221369;28;946;-60
2022/01/11 13:35:51;;;;;;;;;;;;;;;;;;4221315;28;967;-59
2022/01/11 13:38:11;;;;;;;;;;;;;;;;;;4221414;28;1278;-59
2022/01/11 13:40:32;;;;;;;;;;;;;;;;;;4221797;28;1979;-59
2022/01/11 13:42:52;;;;;;;;;;;;;;;;;;4221736;28;1044;-58
2022/01/11 13:45:12;;;;;;;;;;;;;;;;;;4221656;28;1128;-59
2022/01/11 13:47:33;;;;;;;;;;;;;;;;;;4221245;28;1020;-59
2022/01/11 13:49:54;;;;;;;;;;;;;;;;;;4221139;28;982;-59
2022/01/11 13:52:15;;;;;;;;;;;;;;;;;;4221294;28;1158;-59
2022/01/11 13:54:35;;;;;;;;;;;;;;;;;;4221112;28;1004;-59
2022/01/11 13:56:55;;;;;;;;;;;;;;;;;;4220986;28;1081;-59
2022/01/11 13:59:16;;;;;;;;;;;;;;;;;;4221614;28;1023;-59
2022/01/11 14:01:37;;;;;;;;;;;;;;;;;;4219628;28;1748;-59
2022/01/11 14:03:57;;;;;;;;;;;;;;;;;;4219769;28;1661;-59
2022/01/11 14:06:17;;;;;;;;;;;;;;;;;;4219243;28;1337;-59
2022/01/11 14:08:39;;;;;;;;;;;;;;;;;;4216515;28;1998;-60
2022/01/11 14:11:07;;;;;;;;;;;;;;;;;;4219470;28;1544;-59
2022/01/11 14:13:28;;;;;;;;;;;;;;;;;;4221881;28;1525;-58
2022/01/11 14:15:48;;;;;;;;;;;;;;;;;;4220341;28;1511;-59
2022/01/11 14:18:08;;;;;;;;;;;;;;;;;;4220543;28;1745;-59
2022/01/11 14:20:28;;;;;;;;;;;;;;;;;;4224476;28;1909;-59
2022/01/11 14:22:49;;;;;;;;;;;;;;;;;;4205042;28;2258;-59
2022/01/11 14:25:09;;;;;;;;;;;;;;;;;;4222967;28;1367;-59
2022/01/11 14:27:30;;;;;;;;;;;;;;;;;;4221162;28;1506;-59
2022/01/11 14:29:50;;;;;;;;;;;;;;;;;;4221251;28;1564;-59
2022/01/11 14:32:10;;;;;;;;;;;;;;;;;;4220850;28;1695;-59
2022/01/11 14:34:30;;;;;;;;;;;;;;;;;;4206598;28;1210;-59
2022/01/11 14:36:50;;;;;;;;;;;;;;;;;;4212860;28;1518;-59
2022/01/11 14:39:11;;;;;;;;;;;;;;;;;;4223113;28;1319;-59
2022/01/11 14:41:31;;;;;;;;;;;;;;;;;;4223107;28;1914;-59
2022/01/11 14:43:52;;;;;;;;;;;;;;;;;;4220004;28;1364;-59
2022/01/11 14:46:12;;;;;;;;;;;;;;;;;;4220075;28;1410;-59
2022/01/11 14:48:33;;;;;;;;;;;;;;;;;;4225835;28;1547;-59
2022/01/11 14:50:53;;;;;;;;;;;;;;;;;;4230315;28;1434;-59
2022/01/11 14:53:14;;;;;;;;;;;;;;;;;;4235169;28;1399;-60
2022/01/11 14:55:34;;;;;;;;;;;;;;;;;;4221618;28;2179;-59
2022/01/11 14:57:55;;;;;;;;;;;;;;;;;;4222998;28;1276;-59
2022/01/11 15:00:15;;;;;;;;;;;;;;;;;;4223046;28;1910;-60
2022/01/11 15:02:35;;;;;;;;;;;;;;;;;;4220130;28;2404;-60
2022/01/11 15:04:56;;;;;;;;;;;;;;;;;;4213417;28;1973;-60
2022/01/11 15:07:16;;;;;;;;;;;;;;;;;;4219098;28;2095;-60
2022/01/11 15:09:36;;;;;;;;;;;;;;;;;;4221982;28;1073;-60
2022/01/11 15:11:57;;;;;;;;;;;;;;;;;;4207253;28;2081;-60
2022/01/11 15:14:17;;;;;;;;;;;;;;;;;;4214204;28;1784;-60
2022/01/11 15:16:37;;;;;;;;;;;;;;;;;;4216212;28;2392;-60
2022/01/11 15:18:58;;;;;;;;;;;;;;;;;;4219688;28;1372;-61
2022/01/11 15:21:18;;;;;;;;;;;;;;;;;;4221296;28;1996;-61
2022/01/11 15:23:39;;;;;;;;;;;;;;;;;;4219658;28;1373;-60
2022/01/11 15:25:59;;;;;;;;;;;;;;;;;;4219789;28;1587;-62
2022/01/11 15:28:19;;;;;;;;;;;;;;;;;;4219705;28;1577;-61
2022/01/11 15:30:40;;;;;;;;;;;;;;;;;;4220333;28;1384;-60
2022/01/11 15:33:00;;;;;;;;;;;;;;;;;;4222162;28;1452;-60
2022/01/11 15:35:20;;;;;;;;;;;;;;;;;;4222165;28;1078;-61
2022/01/11 15:37:42;;;;;;;;;;;;;;;;;;4222566;28;1218;-60
2022/01/11 15:40:03;;;;;;;;;;;;;;;;;;4210322;28;2420;-58
2022/01/11 15:42:23;;;;;;;;;;;;;;;;;;4207267;28;2042;-58
2022/01/11 15:44:43;;;;;;;;;;;;;;;;;;4214217;28;1940;-60
2022/01/11 15:47:03;;;;;;;;;;;;;;;;;;4220979;28;1727;-60
2022/01/11 15:49:23;;;;;;;;;;;;;;;;;;4220217;28;1492;-61
2022/01/11 15:51:45;;;;;;;;;;;;;;;;;;4222120;28;1380;-60
2022/01/11 15:54:05;;;;;;;;;;;;;;;;;;4213245;28;1797;-60
2022/01/11 15:56:25;;;;;;;;;;;;;;;;;;4221320;28;1501;-60
2022/01/11 15:58:46;;;;;;;;;;;;;;;;;;4221436;28;1681;-60
2022/01/11 16:01:06;;;;;;;;;;;;;;;;;;4220789;28;1968;-60
2022/01/11 16:03:26;;;;;;;;;;;;;;;;;;4218875;28;1642;-61
2022/01/11 16:05:47;;;;;;;;;;;;;;;;;;4213747;28;1764;-60
2022/01/11 16:08:07;;;;;;;;;;;;;;;;;;4217133;28;2357;-61
2022/01/11 16:10:27;;;;;;;;;;;;;;;;;;4209965;28;1915;-60
2022/01/11 16:12:47;;;;;;;;;;;;;;;;;;4211696;28;1612;-60
2022/01/11 16:15:08;;;;;;;;;;;;;;;;;;4221382;28;1599;-60
2022/01/11 16:17:28;;;;;;;;;;;;;;;;;;4220607;28;1081;-60
2022/01/11 16:19:48;;;;;;;;;;;;;;;;;;4201602;28;1780;-60
2022/01/11 16:22:09;;;;;;;;;;;;;;;;;;4196257;28;1987;-60
2022/01/11 16:24:29;;;;;;;;;;;;;;;;;;4201528;28;1483;-60
2022/01/11 16:26:49;;;;;;;;;;;;;;;;;;4201979;28;1206;-60
2022/01/11 16:29:09;;;;;;;;;;;;;;;;;;4204432;28;2248;-61